Time;durP1;ratioP1;P1;durP2;ratioP2;P2;SDS_P1;SDS_P2;PMS_P1;PMS_P2;Temp;Humidity;BMP_temperature;BMP_pressure;BME280_temperature;BME280_humidity;BME280_pressure;Samples;Min_cycle;Max_cycle;Signal;HPM_P1;HPM_P2
2021/04/30 00:01:56;;;;;;;8.45;5.45;;;3.20;99.90;;;2.30;73.07;97056.63;5010172;28;20101;-66
2021/04/30 00:04:23;;;;;;;9.35;5.60;;;3.20;99.90;;;2.38;73.03;97053.94;5010358;28;20053;-66
2021/04/30 00:06:50;;;;;;;9.25;5.57;;;3.20;99.90;;;2.24;73.73;97061.84;5009735;28;20522;-66
2021/04/30 00:09:17;;;;;;;8.35;5.72;;;3.10;99.90;;;2.29;73.35;97065.19;5009553;28;20506;-66
2021/04/30 00:11:44;;;;;;;9.98;6.82;;;3.10;99.90;;;2.12;75.52;97061.22;4994726;28;20418;-66
2021/04/30 00:14:11;;;;;;;10.27;5.80;;;3.00;99.90;;;2.30;73.12;97066.88;4992056;28;20114;-67
2021/04/30 00:16:39;;;;;;;8.57;5.05;;;3.00;99.90;;;2.16;73.34;97073.09;4991296;28;20038;-66
2021/04/30 00:19:07;;;;;;;10.10;6.05;;;3.00;99.90;;;2.24;72.93;97074.66;5009771;28;20101;-66
2021/04/30 00:21:36;;;;;;;8.43;5.13;;;3.00;99.90;;;2.28;72.30;97072.88;5010471;28;20042;-66
2021/04/30 00:24:06;;;;;;;8.75;6.25;;;3.00;99.90;;;2.08;73.57;97074.09;5009474;28;20038;-67
2021/04/30 00:26:33;;;;;;;11.95;7.38;;;2.90;99.90;;;2.14;72.88;97073.13;4993011;28;20049;-66
2021/04/30 00:28:59;;;;;;;12.18;6.90;;;2.90;99.90;;;2.03;75.49;97075.00;5008156;28;20061;-67
2021/04/30 00:31:26;;;;;;;10.80;7.05;;;2.90;99.90;;;1.91;76.31;97063.28;4991902;28;20172;-66
2021/04/30 00:33:53;;;;;;;8.88;6.13;;;2.90;99.90;;;2.02;75.07;97068.22;5009366;28;20443;-67
2021/04/30 00:36:20;;;;;;;14.63;7.55;;;2.90;99.90;;;1.91;76.22;97065.81;5010760;28;20141;-66
2021/04/30 00:38:46;;;;;;;11.70;6.85;;;2.80;99.90;;;2.05;75.63;97074.16;4994881;28;20045;-66
2021/04/30 00:41:13;;;;;;;13.15;7.55;;;2.90;99.90;;;2.16;73.93;97066.25;5022161;28;20073;-66
2021/04/30 00:43:47;;;;;;;8.85;6.00;;;2.90;99.90;;;1.95;73.87;97076.88;5006551;28;20045;-66
2021/04/30 00:46:14;;;;;;;15.00;7.75;;;2.90;99.90;;;1.78;75.45;97072.00;4999370;28;20138;-66
2021/04/30 00:48:41;;;;;;;13.15;7.60;;;2.80;99.90;;;2.06;73.88;97074.97;5006897;28;20104;-66
2021/04/30 00:51:08;;;;;;;12.50;6.85;;;2.80;99.90;;;2.01;73.41;97072.50;4984470;28;20081;-66
2021/04/30 00:53:34;;;;;;;11.18;6.47;;;2.80;99.90;;;1.83;73.69;97077.94;4991589;28;20079;-66
2021/04/30 00:56:01;;;;;;;12.93;6.78;;;2.70;99.90;;;1.57;74.91;97080.88;5008007;28;20478;-66
2021/04/30 00:58:28;;;;;;;10.30;6.93;;;2.60;99.90;;;1.56;76.07;97082.59;4997308;28;20042;-66
2021/04/30 01:00:55;;;;;;;10.82;7.30;;;2.50;99.90;;;1.71;75.17;97085.78;4995869;28;20045;-66
2021/04/30 01:03:22;;;;;;;12.10;7.07;;;2.50;99.90;;;1.80;74.78;97089.06;4988729;28;20052;-66
2021/04/30 01:05:49;;;;;;;14.23;9.30;;;2.60;99.90;;;1.48;77.35;97101.47;4973229;28;20053;-66
2021/04/30 01:08:16;;;;;;;14.13;7.97;;;2.60;99.90;;;1.28;79.74;97092.38;4992219;28;20045;-66
2021/04/30 01:10:42;;;;;;;14.73;8.88;;;2.60;99.90;;;1.28;80.38;97091.50;5007319;28;20054;-66
2021/04/30 01:13:12;;;;;;;10.82;7.57;;;2.60;99.90;;;1.37;80.47;97093.94;4997674;28;20037;-67
2021/04/30 01:15:40;;;;;;;12.52;8.48;;;2.60;99.90;;;1.67;78.34;97096.06;4990496;28;20060;-66
2021/04/30 01:18:06;;;;;;;13.15;7.57;;;2.50;99.90;;;1.69;77.06;97098.59;5008801;28;20117;-66
2021/04/30 01:20:32;;;;;;;14.88;7.82;;;2.60;99.90;;;1.78;76.63;97105.28;5005970;28;20112;-67
2021/04/30 01:22:59;;;;;;;11.75;7.50;;;2.60;99.90;;;1.76;76.65;97104.47;4990493;28;20033;-66
2021/04/30 01:25:29;;;;;;;11.70;7.07;;;2.60;99.90;;;1.79;75.25;97107.81;4991161;28;20410;-67
2021/04/30 01:27:55;;;;;;;11.93;7.20;;;2.60;99.90;;;1.67;75.23;97105.47;5007770;28;20058;-66
2021/04/30 01:30:28;;;;;;;9.80;6.00;;;2.50;99.90;;;1.59;74.85;97105.56;4984151;28;20050;-66
2021/04/30 01:32:56;;;;;;;8.40;5.90;;;2.50;99.90;;;1.45;74.56;97102.34;5000334;28;20042;-66
2021/04/30 01:35:29;;;;;;;10.63;6.63;;;2.40;99.90;;;1.41;74.68;97111.78;4994474;28;20101;-66
2021/04/30 01:37:58;;;;;;;9.25;6.25;;;2.30;99.90;;;1.56;74.43;97115.00;5004778;28;20194;-66
2021/04/30 01:40:31;;;;;;;11.27;6.80;;;2.30;99.90;;;1.24;75.96;97117.13;5006552;28;20054;-67
2021/04/30 01:43:16;;;;;;;;;;;2.30;99.90;;;1.34;75.80;97122.94;4975092;28;20041;-66
2021/04/30 01:45:52;;;;;;;11.15;6.72;;;2.30;99.90;;;1.29;75.54;97119.63;5003656;28;19944;-66
2021/04/30 01:48:35;;;;;;;8.35;5.53;;;2.20;99.90;;;1.10;76.07;97111.34;4990394;28;20037;-66
2021/04/30 01:51:03;;;;;;;10.63;7.13;;;2.10;99.90;;;1.17;75.88;97115.50;4986852;28;20057;-67
2021/04/30 01:53:35;;;;;;;13.07;6.78;;;2.10;99.90;;;1.20;75.95;97130.81;5007026;28;20076;-66
2021/04/30 01:56:12;;;;;;;9.48;6.43;;;2.10;99.90;;;1.22;75.48;97126.53;5004118;28;20386;-66
2021/04/30 01:58:41;;;;;;;10.50;6.75;;;2.10;99.90;;;0.95;76.43;97125.16;4984553;28;20102;-66
2021/04/30 02:01:10;;;;;;;10.68;6.25;;;2.00;99.90;;;1.01;76.69;97124.25;5008912;28;20037;-66
2021/04/30 02:03:37;;;;;;;14.50;8.90;;;1.90;99.90;;;1.03;78.05;97109.75;5006885;28;20042;-66
2021/04/30 02:06:05;;;;;;;15.18;8.77;;;1.90;99.90;;;0.90;77.34;97103.91;5008557;28;20399;-66
2021/04/30 02:08:31;;;;;;;13.48;7.65;;;1.80;99.90;;;0.87;76.77;97087.75;4990951;28;20148;-66
2021/04/30 02:11:02;;;;;;;11.30;6.80;;;1.80;99.90;;;0.91;76.42;97097.94;4991028;28;20459;-66
2021/04/30 02:13:29;;;;;;;10.43;6.88;;;1.70;99.90;;;0.86;76.88;97098.88;4989560;28;20050;-66
2021/04/30 02:15:56;;;;;;;10.93;6.88;;;1.70;99.90;;;0.95;76.93;97107.25;4986328;28;20494;-66
2021/04/30 02:18:24;;;;;;;11.52;7.95;;;1.70;99.90;;;0.96;77.08;97095.34;4991419;28;20042;-66
2021/04/30 02:20:52;;;;;;;16.75;8.77;;;1.80;99.90;;;1.06;76.20;97096.06;5006307;28;20519;-66
2021/04/30 02:23:20;;;;;;;11.10;7.55;;;1.80;99.90;;;0.86;76.90;97102.25;4991039;28;20064;-66
2021/04/30 02:25:47;;;;;;;12.73;7.82;;;1.80;99.90;;;0.94;76.86;97102.19;4995835;28;20042;-66
2021/04/30 02:28:14;;;;;;;13.93;8.68;;;1.80;99.90;;;0.90;77.17;97109.03;4989043;28;20081;-67
2021/04/30 02:30:41;;;;;;;13.80;8.50;;;1.70;99.90;;;0.77;77.97;97115.13;4973585;28;20144;-66
2021/04/30 02:33:10;;;;;;;13.13;7.13;;;1.80;99.90;;;0.88;75.99;97115.03;4988226;28;20100;-66
2021/04/30 02:35:41;;;;;;;11.23;7.35;;;1.70;99.90;;;0.68;77.16;97110.97;5005316;28;20045;-66
2021/04/30 02:38:10;;;;;;;12.32;7.80;;;1.70;99.90;;;0.53;78.37;97106.88;4988453;28;20321;-67
2021/04/30 02:40:39;;;;;;;14.85;9.45;;;1.60;99.90;;;0.61;78.98;97099.13;5008751;28;20410;-66
2021/04/30 02:43:16;;;;;;;12.23;7.97;;;1.50;99.90;;;0.53;78.74;97100.94;4989449;28;20069;-66
2021/04/30 02:45:44;;;;;;;14.63;8.52;;;1.50;99.90;;;0.42;78.81;97103.59;4989197;28;20042;-66
2021/04/30 02:48:14;;;;;;;15.30;10.00;;;1.40;99.90;;;0.45;79.46;97098.44;4984588;28;20050;-66
2021/04/30 02:50:42;;;;;;;11.93;8.05;;;1.30;99.90;;;0.56;78.50;97098.34;5006057;28;20045;-66
2021/04/30 02:53:08;;;;;;;10.63;6.78;;;1.40;99.90;;;0.67;76.76;97101.63;5010985;28;20324;-66
2021/04/30 02:55:35;;;;;;;12.45;7.35;;;1.40;99.90;;;0.53;77.12;97098.38;5009863;28;20045;-67
2021/04/30 02:58:02;;;;;;;12.52;7.47;;;1.40;99.90;;;0.54;77.65;97100.06;5009277;28;20517;-67
2021/04/30 03:00:30;;;;;;;12.90;8.75;;;1.40;99.90;;;0.53;78.46;97094.13;4997296;28;20081;-66
2021/04/30 03:02:57;;;;;;;10.90;7.57;;;1.40;99.90;;;0.52;78.18;97091.56;4991588;28;20042;-66
2021/04/30 03:05:24;;;;;;;12.27;8.15;;;1.40;99.90;;;0.58;77.35;97097.47;4994297;28;20044;-66
2021/04/30 03:07:51;;;;;;;12.77;8.00;;;1.40;99.90;;;0.61;76.67;97086.38;5009418;28;20042;-66
2021/04/30 03:10:18;;;;;;;14.23;9.25;;;1.40;99.90;;;0.32;79.83;97094.31;4994087;28;20045;-66
2021/04/30 03:12:46;;;;;;;14.60;9.30;;;1.30;99.90;;;0.08;81.25;97105.63;4992787;28;20501;-66
2021/04/30 03:15:15;;;;;;;14.27;9.45;;;1.30;99.90;;;-0.19;83.42;97099.03;5010788;28;20045;-67
2021/04/30 03:17:46;;;;;;;16.83;8.82;;;1.30;99.90;;;0.18;80.75;97095.31;4992720;28;20045;-67
2021/04/30 03:20:15;;;;;;;13.95;8.35;;;1.20;99.90;;;0.33;79.16;97086.66;5011105;28;20220;-66
2021/04/30 03:22:41;;;;;;;13.25;7.75;;;1.20;99.90;;;0.44;77.89;97083.16;4992895;28;20050;-66
2021/04/30 03:25:10;;;;;;;13.95;9.05;;;1.20;99.90;;;0.52;77.85;97084.75;4977491;28;20038;-66
2021/04/30 03:27:37;;;;;;;13.05;8.18;;;1.30;99.90;;;0.48;77.34;97085.66;5010263;28;20535;-66
2021/04/30 03:30:06;;;;;;;12.80;7.60;;;1.30;99.90;;;0.37;77.25;97083.22;5011224;28;20045;-66
2021/04/30 03:32:35;;;;;;;11.55;7.68;;;1.30;99.90;;;0.28;77.48;97088.41;5008347;28;20050;-66
2021/04/30 03:35:04;;;;;;;12.88;7.88;;;1.20;99.90;;;0.45;76.08;97085.69;4997372;28;20144;-66
2021/04/30 03:37:31;;;;;;;12.35;7.78;;;1.20;99.90;;;0.45;76.30;97087.41;5008105;28;20430;-66
2021/04/30 03:39:57;;;;;;;11.27;7.28;;;1.20;99.90;;;0.36;76.47;97088.31;5010315;28;20490;-66
2021/04/30 03:42:24;;;;;;;12.18;7.60;;;1.20;99.90;;;0.28;76.98;97079.91;4992937;28;20042;-66
2021/04/30 03:44:50;;;;;;;10.68;7.00;;;1.10;99.90;;;0.27;76.60;97093.53;5010181;28;20041;-66
2021/04/30 03:47:17;;;;;;;11.60;7.82;;;1.10;99.90;;;0.25;77.29;97085.91;5009836;28;20046;-66
2021/04/30 03:49:43;;;;;;;12.88;7.75;;;1.10;99.90;;;0.29;76.93;97089.25;4997275;28;20076;-66
2021/04/30 03:52:10;;;;;;;14.38;8.45;;;1.10;99.90;;;0.20;77.41;97092.75;5010596;28;20049;-66
2021/04/30 03:54:37;;;;;;;13.15;8.55;;;1.10;99.90;;;0.28;77.79;97080.75;4990503;28;20058;-66
2021/04/30 03:57:04;;;;;;;16.90;8.95;;;1.10;99.90;;;0.31;78.65;97084.97;4996926;28;20046;-66
2021/04/30 03:59:30;;;;;;;16.02;10.85;;;1.10;99.90;;;0.01;81.56;97093.78;4992752;28;20057;-66
2021/04/30 04:01:57;;;;;;;17.30;9.68;;;1.10;99.90;;;0.06;80.97;97097.97;5007600;28;20065;-66
2021/04/30 04:04:25;;;;;;;13.60;7.82;;;1.10;99.90;;;0.25;78.61;97096.13;4995369;28;20134;-66
2021/04/30 04:06:52;;;;;;;15.57;8.80;;;1.10;99.90;;;0.23;77.59;97102.94;5006720;28;20100;-66
2021/04/30 04:09:18;;;;;;;14.50;8.35;;;1.10;99.90;;;0.19;78.00;97099.56;4991436;28;20038;-66
2021/04/30 04:11:46;;;;;;;13.73;8.77;;;1.10;99.90;;;0.28;77.45;97097.78;4991280;28;20119;-66
2021/04/30 04:14:12;;;;;;;14.57;8.80;;;1.10;99.90;;;0.19;77.34;97099.56;4962229;28;20049;-67
2021/04/30 04:16:39;;;;;;;14.85;8.95;;;1.10;99.90;;;0.05;78.13;97098.84;4992368;28;20306;-66
2021/04/30 04:19:06;;;;;;;14.68;9.65;;;1.10;99.90;;;0.10;78.42;97096.25;5002982;28;20243;-66
2021/04/30 04:21:33;;;;;;;14.23;8.88;;;1.00;99.90;;;-0.01;78.76;97096.34;4986282;28;20053;-66
2021/04/30 04:23:59;;;;;;;14.23;8.60;;;1.00;99.90;;;0.08;78.27;97091.16;5006886;28;20046;-66
2021/04/30 04:26:26;;;;;;;13.70;8.23;;;1.00;99.90;;;0.13;77.80;97094.50;4992975;28;20056;-67
2021/04/30 04:29:04;;;;;;;13.30;7.97;;;1.00;99.90;;;0.22;76.95;97097.84;4987932;28;20070;-66
2021/04/30 04:31:30;;;;;;;18.90;9.45;;;1.00;99.90;;;0.30;76.07;97096.06;4981796;28;20049;-66
2021/04/30 04:33:57;;;;;;;11.32;7.68;;;1.00;99.90;;;0.30;75.67;97098.63;4991986;28;20042;-66
2021/04/30 04:36:23;;;;;;;14.90;9.40;;;1.10;99.90;;;0.27;76.44;97099.47;5010150;28;20038;-66
2021/04/30 04:38:50;;;;;;;18.50;10.70;;;1.10;99.90;;;0.23;77.67;97107.16;4988903;28;20033;-66
2021/04/30 04:41:17;;;;;;;19.45;10.73;;;1.10;99.90;;;0.17;79.04;97100.44;5004914;28;20435;-66
2021/04/30 04:43:43;;;;;;;13.63;7.93;;;1.20;99.90;;;0.25;77.20;97106.31;5006147;28;20246;-66
2021/04/30 04:46:10;;;;;;;13.27;8.15;;;1.20;99.90;;;0.23;77.31;97102.06;5004944;28;20060;-66
2021/04/30 04:48:37;;;;;;;19.73;10.88;;;1.20;99.90;;;0.35;76.89;97102.81;4998760;28;20072;-67
2021/04/30 04:51:03;;;;;;;12.65;9.27;;;1.30;99.90;;;0.50;76.69;97090.75;5008029;28;20042;-66
2021/04/30 04:53:30;;;;;;;18.00;10.07;;;1.40;99.90;;;0.62;76.40;97101.69;5009605;28;20073;-66
2021/04/30 04:56:17;;;;;;;15.48;9.77;;;1.50;99.90;;;0.57;76.80;97103.44;5003300;28;20133;-66
2021/04/30 04:58:43;;;;;;;13.23;8.50;;;1.50;99.90;;;0.65;76.33;97097.41;5002569;28;21463;-66
2021/04/30 05:01:10;;;;;;;16.52;10.48;;;1.60;99.90;;;0.18;79.26;97109.75;5008760;28;20038;-67
2021/04/30 05:03:37;;;;;;;15.82;10.20;;;1.80;99.90;;;0.61;78.26;97111.91;5005190;28;20061;-67
2021/04/30 05:06:04;;;;;;;13.23;9.13;;;1.80;99.90;;;0.90;77.13;97115.84;5005719;28;20089;-67
2021/04/30 05:08:30;;;;;;;16.27;10.32;;;2.00;99.90;;;0.96;77.39;97105.56;5008468;28;20050;-66
2021/04/30 05:10:57;;;;;;;12.30;8.40;;;2.20;99.90;;;1.22;76.23;97100.13;5009083;28;20108;-66
2021/04/30 05:13:24;;;;;;;16.83;10.23;;;2.40;99.90;;;1.37;76.16;97094.81;5008873;28;20037;-66
2021/04/30 05:15:53;;;;;;;21.08;14.05;;;2.50;99.90;;;1.21;76.64;97088.22;4996889;28;20077;-66
2021/04/30 05:18:19;;;;;;;20.55;14.20;;;2.50;99.90;;;1.41;76.53;97080.25;5006903;28;20033;-66
2021/04/30 05:20:46;;;;;;;13.77;10.38;;;2.50;99.90;;;1.45;76.55;97085.28;5005227;28;20050;-66
2021/04/30 05:23:12;;;;;;;17.83;12.18;;;2.70;99.90;;;1.71;75.84;97098.56;4972252;28;20093;-66
2021/04/30 05:25:39;;;;;;;18.38;12.23;;;3.00;99.90;;;1.58;78.16;97103.03;4982971;28;20049;-66
2021/04/30 05:28:05;;;;;;;18.15;12.63;;;3.30;99.90;;;1.62;77.88;97107.22;5008259;28;20045;-66
2021/04/30 05:30:32;;;;;;;16.52;11.05;;;3.40;99.90;;;2.04;76.39;97102.31;4974100;28;20077;-66
2021/04/30 05:33:01;;;;;;;16.90;11.15;;;3.60;99.90;;;2.32;75.93;97102.69;5008733;28;20128;-66
2021/04/30 05:35:29;;;;;;;16.70;11.93;;;3.70;99.90;;;2.45;75.22;97083.66;5008707;28;20057;-66
2021/04/30 05:37:56;;;;;;;16.73;10.93;;;3.90;99.90;;;2.45;75.24;97082.84;5001703;28;20385;-66
2021/04/30 05:40:23;;;;;;;17.27;12.50;;;4.00;99.90;;;2.77;74.91;97086.50;4972338;28;20054;-66
2021/04/30 05:42:50;;;;;;;19.08;10.85;;;4.20;99.90;;;3.23;73.37;97085.56;4978343;28;20052;-67
2021/04/30 05:45:17;;;;;;;17.75;11.85;;;4.50;99.90;;;3.31;72.68;97084.53;4997598;28;20046;-66
2021/04/30 05:47:44;;;;;;;17.50;12.60;;;4.80;99.90;;;2.86;74.79;97094.03;5007720;28;20117;-66
2021/04/30 05:50:12;;;;;;;22.50;14.60;;;4.70;99.90;;;2.50;76.60;97093.84;4992588;28;20041;-67
2021/04/30 05:52:38;;;;;;;20.05;14.45;;;4.60;99.90;;;2.58;76.27;97098.81;5007308;28;20047;-67
2021/04/30 05:55:06;;;;;;;20.15;13.35;;;4.60;99.90;;;2.95;76.03;97101.53;4982950;28;20117;-66
2021/04/30 05:57:33;;;;;;;26.77;15.95;;;4.60;99.90;;;3.06;75.52;97097.03;4982917;28;20057;-64
2021/04/30 06:00:00;;;;;;;21.70;14.82;;;4.50;99.90;;;2.96;76.07;97097.22;4987657;28;20116;-64
2021/04/30 06:02:26;;;;;;;21.92;13.77;;;4.70;99.90;;;3.42;74.29;97088.56;5005159;28;20057;-63
2021/04/30 06:04:53;;;;;;;24.13;13.73;;;4.90;99.90;;;3.88;73.33;97083.25;4985733;28;20104;-64
2021/04/30 06:07:20;;;;;;;20.17;13.85;;;5.10;99.90;;;3.86;73.55;97089.28;4977103;28;20073;-64
2021/04/30 06:09:46;;;;;;;22.35;13.63;;;5.40;99.90;;;3.61;73.14;97089.03;4986604;28;20049;-67
2021/04/30 06:12:13;;;;;;;22.60;14.13;;;5.50;99.90;;;3.58;74.71;97094.19;5004312;28;20053;-67
2021/04/30 06:14:40;;;;;;;20.58;14.90;;;5.60;99.90;;;3.50;74.22;97099.53;4999122;28;20345;-66
2021/04/30 06:17:08;;;;;;;21.65;14.48;;;5.50;99.90;;;3.30;75.72;97093.09;4993255;28;20070;-67
2021/04/30 06:19:35;;;;;;;19.67;13.77;;;5.40;99.90;;;3.48;75.50;97093.56;4987781;28;20419;-64
2021/04/30 06:22:02;;;;;;;18.90;13.05;;;5.40;99.90;;;3.72;74.92;97089.63;4999790;28;20259;-67
2021/04/30 06:24:29;;;;;;;16.67;12.00;;;5.40;99.90;;;3.84;74.83;97097.03;4978935;28;20044;-67
2021/04/30 06:26:56;;;;;;;15.68;11.70;;;5.40;99.90;;;4.26;73.39;97094.28;5009797;28;20374;-66
2021/04/30 06:29:22;;;;;;;18.15;11.95;;;5.60;99.90;;;4.62;72.24;97083.94;5011121;28;20042;-66
2021/04/30 06:31:49;;;;;;;17.27;12.00;;;5.90;99.90;;;5.02;71.64;97077.72;5011931;28;20042;-64
2021/04/30 06:34:16;;;;;;;18.00;12.43;;;6.20;99.90;;;5.22;71.28;97075.41;4996225;28;20121;-66
2021/04/30 06:36:42;;;;;;;17.85;12.02;;;6.50;99.90;;;5.36;70.66;97080.13;5009398;28;20046;-63
2021/04/30 06:39:09;;;;;;;18.33;13.60;;;6.80;99.90;;;5.56;70.10;97076.09;4977655;28;20478;-64
2021/04/30 06:41:36;;;;;;;27.50;17.25;;;6.90;99.90;;;5.48;70.18;97078.09;5011973;28;20135;-66
2021/04/30 06:44:04;;;;;;;23.83;17.00;;;6.90;99.90;;;5.54;70.54;97080.47;5012749;28;20048;-66
2021/04/30 06:46:35;;;;;;;22.27;17.73;;;7.00;99.90;;;5.51;69.69;97078.81;4992484;28;20038;-67
2021/04/30 06:49:03;;;;;;;24.50;18.77;;;7.00;99.90;;;5.71;69.71;97078.22;5007268;28;20038;-66
2021/04/30 06:51:30;;;;;;;25.40;17.50;;;7.10;99.90;;;5.48;69.62;97078.94;4992721;28;20057;-66
2021/04/30 06:53:56;;;;;;;24.45;19.48;;;7.20;99.90;;;5.57;69.43;97086.38;5008703;28;20405;-66
2021/04/30 06:56:25;;;;;;;24.70;19.08;;;7.10;99.90;;;5.49;69.04;97087.47;4992029;28;20399;-66
2021/04/30 06:58:52;;;;;;;25.10;17.85;;;7.10;99.90;;;5.60;69.31;97094.00;5012539;28;20058;-67
2021/04/30 07:01:19;;;;;;;29.05;19.73;;;7.20;99.90;;;5.66;68.32;97092.97;5008393;28;20077;-67
2021/04/30 07:03:46;;;;;;;28.48;19.67;;;7.20;99.90;;;5.53;68.91;97097.63;4992827;28;20041;-66
2021/04/30 07:06:18;;;;;;;28.42;20.55;;;7.20;99.90;;;5.93;68.85;97100.72;4987919;28;20041;-66
2021/04/30 07:08:45;;;;;;;24.13;18.58;;;7.30;99.90;;;6.02;68.27;97103.03;5001228;28;20042;-66
2021/04/30 07:11:12;;;;;;;26.70;20.10;;;7.50;99.90;;;5.85;67.58;97103.53;5012004;28;20062;-66
2021/04/30 07:13:39;;;;;;;25.92;18.90;;;7.60;99.90;;;6.27;66.76;97103.06;5011385;28;20064;-67
2021/04/30 07:16:06;;;;;;;24.27;17.55;;;7.50;99.90;;;6.10;67.34;97102.78;5001082;28;20052;-66
2021/04/30 07:18:33;;;;;;;27.20;19.40;;;7.60;99.90;;;6.22;67.23;97103.22;4974478;28;20050;-66
2021/04/30 07:21:01;;;;;;;22.23;17.77;;;7.60;99.90;;;6.35;66.91;97100.25;5005000;28;20042;-66
2021/04/30 07:23:28;;;;;;;26.70;20.63;;;7.70;99.90;;;6.17;66.89;97099.13;5010342;28;20052;-67
2021/04/30 07:25:55;;;;;;;24.60;19.30;;;7.70;99.90;;;6.27;67.00;97100.50;5001182;28;20124;-67
2021/04/30 07:28:23;;;;;;;26.75;20.27;;;7.90;99.90;;;6.21;67.01;97104.13;4994380;28;20049;-66
2021/04/30 07:30:50;;;;;;;29.92;20.48;;;8.00;99.90;;;6.28;66.11;97099.63;4991123;28;20089;-67
2021/04/30 07:33:17;;;;;;;28.90;21.27;;;8.00;99.90;;;6.07;66.10;97099.41;5005663;28;20045;-66
2021/04/30 07:35:44;;;;;;;28.70;21.00;;;7.80;99.90;;;6.25;65.90;97104.88;4993612;28;20457;-66
2021/04/30 07:38:11;;;;;;;26.83;20.70;;;7.80;99.90;;;6.13;66.72;97108.66;5004269;28;20181;-67
2021/04/30 07:40:40;;;;;;;30.65;20.88;;;7.60;99.90;;;6.04;66.91;97111.53;4983130;28;20494;-67
2021/04/30 07:43:09;;;;;;;29.65;19.80;;;7.70;99.90;;;5.98;66.72;97120.31;5003689;28;20499;-64
2021/04/30 07:45:37;;;;;;;27.20;18.85;;;7.70;99.90;;;6.03;66.71;97123.59;4987483;28;20045;-66
2021/04/30 07:48:08;;;;;;;26.27;20.23;;;7.70;99.90;;;5.85;66.82;97119.00;5009423;28;20045;-66
2021/04/30 07:50:36;;;;;;;30.88;19.45;;;7.60;99.90;;;5.81;67.92;97131.09;5007099;28;20120;-67
2021/04/30 07:53:03;;;;;;;27.65;19.17;;;7.60;99.90;;;5.95;67.57;97124.72;4998167;28;20566;-66
2021/04/30 07:55:31;;;;;;;23.95;18.13;;;7.50;99.90;;;5.96;66.90;97122.09;4997204;28;20054;-66
2021/04/30 07:57:58;;;;;;;22.55;16.90;;;7.50;99.90;;;6.17;66.79;97122.31;5008797;28;20069;-67
2021/04/30 08:00:25;;;;;;;22.35;17.70;;;7.60;99.90;;;6.21;66.91;97122.16;5005019;28;20072;-66
2021/04/30 08:02:52;;;;;;;24.25;18.92;;;7.60;99.90;;;6.22;67.11;97134.16;5010109;28;20096;-66
2021/04/30 08:05:20;;;;;;;27.10;21.17;;;7.70;99.90;;;6.10;66.08;97131.13;4991511;28;20064;-66
2021/04/30 08:07:46;;;;;;;27.77;20.83;;;7.60;99.90;;;6.12;66.31;97135.34;5009964;28;20506;-66
2021/04/30 08:10:13;;;;;;;26.65;19.48;;;7.50;99.90;;;6.30;66.28;97139.06;5009014;28;20042;-66
2021/04/30 08:12:40;;;;;;;26.38;19.75;;;7.70;99.90;;;6.05;66.06;97139.84;5010005;28;20038;-66
2021/04/30 08:15:10;;;;;;;29.13;20.88;;;7.80;99.90;;;6.13;66.81;97131.03;4993331;28;20470;-66
2021/04/30 08:17:37;;;;;;;29.83;20.88;;;7.70;99.90;;;5.81;67.01;97125.13;5007462;28;20064;-66
2021/04/30 08:20:05;;;;;;;25.95;20.35;;;7.40;99.90;;;5.70;67.30;97129.75;5009430;28;20049;-66
2021/04/30 08:22:32;;;;;;;28.90;19.02;;;7.30;99.90;;;6.06;67.40;97122.66;4992760;28;20053;-66
2021/04/30 08:24:59;;;;;;;29.85;20.23;;;7.40;99.90;;;5.94;67.00;97123.03;5010714;28;20053;-66
2021/04/30 08:27:25;;;;;;;25.75;17.92;;;7.30;99.90;;;6.03;66.60;97131.31;4994416;28;20148;-66
2021/04/30 08:29:52;;;;;;;23.33;18.67;;;7.40;99.90;;;6.21;66.21;97122.16;4989690;28;20057;-66
2021/04/30 08:32:19;;;;;;;25.48;19.33;;;7.60;99.90;;;6.01;66.68;97127.13;4991738;28;20057;-67
2021/04/30 08:34:47;;;;;;;19.75;14.77;;;7.40;99.90;;;6.25;65.20;97131.50;5010768;28;20046;-66
2021/04/30 08:37:14;;;;;;;26.73;16.80;;;7.60;99.90;;;6.24;64.14;97128.94;4994251;28;20129;-66
2021/04/30 08:39:41;;;;;;;22.13;14.75;;;7.60;99.90;;;6.08;63.10;97126.84;4989260;28;20058;-66
2021/04/30 08:42:10;;;;;;;19.42;15.50;;;7.50;99.90;;;6.16;63.93;97136.94;4998273;28;20038;-66
2021/04/30 08:44:39;;;;;;;21.52;15.10;;;7.50;99.90;;;6.11;63.69;97143.94;5010224;28;20148;-66
2021/04/30 08:47:07;;;;;;;18.50;13.93;;;7.60;99.90;;;6.32;62.95;97137.28;4969642;28;20106;-66
2021/04/30 08:49:34;;;;;;;20.52;13.85;;;7.70;99.90;;;6.36;63.03;97140.59;4973306;28;20042;-66
2021/04/30 08:52:02;;;;;;;18.73;14.10;;;7.60;99.90;;;6.46;62.60;97142.81;4990510;28;20046;-66
2021/04/30 08:54:30;;;;;;;19.80;13.13;;;7.70;99.90;;;6.15;63.54;97131.81;4986854;28;20466;-66
2021/04/30 08:57:04;;;;;;;21.27;13.73;;;7.80;99.90;;;6.23;63.42;97135.00;4984281;28;20606;-66
2021/04/30 08:59:32;;;;;;;48.67;13.77;;;7.80;99.90;;;6.21;62.88;97127.31;5010697;28;20061;-66
2021/04/30 09:02:00;;;;;;;19.58;12.95;;;7.70;99.90;;;6.17;63.14;97140.34;5003987;28;20062;-66
2021/04/30 09:04:29;;;;;;;20.65;12.98;;;7.70;99.90;;;6.18;63.00;97131.72;4991067;28;20050;-66
2021/04/30 09:07:12;;;;;;;19.33;13.45;;;7.50;99.90;;;6.23;63.99;97127.28;4990721;28;20050;-66
2021/04/30 09:09:56;;;;;;;17.10;12.95;;;7.60;99.90;;;6.22;64.36;97129.00;4990649;28;20379;-66
2021/04/30 09:12:25;;;;;;;16.52;13.52;;;7.70;99.90;;;6.18;64.82;97131.72;4988668;28;20113;-66
2021/04/30 09:14:52;;;;;;;18.35;13.05;;;7.80;99.90;;;6.38;64.38;97129.34;4972990;28;20145;-66
2021/04/30 09:17:20;;;;;;;17.40;13.13;;;7.90;99.90;;;6.57;64.40;97120.97;4984570;28;20166;-66
2021/04/30 09:19:58;;;;;;;17.40;13.68;;;8.10;99.90;;;6.73;63.36;97106.69;5009661;28;20062;-66
2021/04/30 09:22:45;;;;;;;19.38;12.82;;;8.30;99.90;;;6.96;63.16;97112.78;5008375;28;20045;-66
2021/04/30 09:25:19;;;;;;;18.92;14.02;;;8.50;99.90;;;6.95;61.88;97109.34;5008564;28;20038;-66
2021/04/30 09:27:53;;;;;;;;;;;8.60;99.90;;;7.05;62.24;97105.53;4999068;28;20044;-66
2021/04/30 09:30:31;;;;;;;18.92;12.90;;;8.60;99.90;;;7.00;61.03;97098.84;5007558;28;19929;-66
2021/04/30 09:33:23;;;;;;;15.95;12.00;;;8.80;99.90;;;7.11;59.78;97097.56;4991547;28;20097;-66
2021/04/30 09:35:59;;;;;;;17.33;12.15;;;8.80;99.90;;;7.15;59.27;97093.16;5000305;28;20071;-66
2021/04/30 09:38:34;;;;;;;17.10;12.13;;;8.80;99.90;;;7.07;59.30;97092.56;4966097;28;20042;-66
2021/04/30 09:41:01;;;;;;;16.52;11.75;;;8.60;99.90;;;7.22;59.91;97094.59;5004355;28;20041;-66
2021/04/30 09:43:45;;;;;;;16.92;12.63;;;8.90;99.90;;;7.06;58.16;97096.06;4989307;28;20084;-66
2021/04/30 09:46:32;;;;;;;15.30;12.30;;;8.70;99.90;;;7.14;58.19;97091.47;5003203;28;20038;-66
2021/04/30 09:49:07;;;;;;;17.10;11.43;;;8.70;99.90;;;7.45;57.24;97092.91;5008320;28;20045;-66
2021/04/30 09:51:45;;;;;;;16.88;11.90;;;8.80;99.90;;;7.32;56.52;97085.63;4991593;28;20475;-66
2021/04/30 09:54:28;;;;;;;12.93;8.95;;;8.90;99.90;;;7.78;56.16;97090.78;4981452;28;20049;-66
2021/04/30 09:57:26;;;;;;;14.23;9.13;;;9.20;99.90;;;8.12;55.36;97098.03;5004653;28;20050;-67
2021/04/30 10:00:00;;;;;;;10.15;7.68;;;9.40;99.90;;;8.15;53.69;97102.22;5002175;28;20454;-66
2021/04/30 10:02:30;;;;;;;13.68;9.57;;;9.60;99.90;;;8.06;54.86;97095.69;5006891;28;20398;-66
2021/04/30 10:05:08;;;;;;;14.15;8.82;;;9.60;99.90;;;8.37;54.56;97084.09;4996041;28;20065;-66
2021/04/30 10:07:54;;;;;;;16.60;8.52;;;9.70;99.90;;;8.28;53.88;97077.56;4987904;28;20129;-66
2021/04/30 10:10:23;;;;;;;12.50;7.50;;;9.70;99.90;;;7.89;53.10;97073.09;4974863;28;20042;-66
2021/04/30 10:12:55;;;;;;;8.70;6.13;;;9.50;99.90;;;7.91;53.85;97075.59;5009952;28;20116;-66
2021/04/30 10:15:22;;;;;;;11.00;5.88;;;9.40;99.90;;;8.00;52.70;97077.81;5008138;28;20652;-66
2021/04/30 10:17:54;;;;;;;10.93;6.28;;;9.50;99.90;;;8.26;52.77;97079.34;5006539;28;20050;-66
2021/04/30 10:20:21;;;;;;;10.88;6.18;;;9.70;99.90;;;8.63;52.64;97067.50;4998988;28;20837;-66
2021/04/30 10:22:49;;;;;;;10.35;5.50;;;9.70;99.90;;;8.87;51.75;97060.41;4976128;28;20084;-67
2021/04/30 10:25:21;;;;;;;13.80;5.82;;;9.90;99.90;;;8.55;52.31;97070.41;5008874;28;20038;-66
2021/04/30 10:27:53;;;;;;;9.88;5.00;;;10.10;99.90;;;8.57;51.22;97066.00;5009059;28;20049;-66
2021/04/30 10:30:44;;;;;;;5.95;3.78;;;10.10;99.90;;;8.79;50.20;97063.31;5007569;28;20078;-67